createdAt,value
2022-11-05T00:00:19.761Z,8.13
2022-11-05T00:03:05.834Z,11.48
2022-11-05T00:05:51.645Z,8.98
2022-11-05T00:08:37.530Z,7.68
2022-11-05T00:11:04.983Z,7.82
2022-11-05T00:13:50.928Z,8.65
2022-11-05T00:16:36.966Z,4.88
2022-11-05T00:19:07.491Z,6.15
2022-11-05T00:21:55.149Z,6.72
2022-11-05T00:24:41.698Z,4.80
2022-11-05T00:27:09.636Z,5.47
2022-11-05T00:29:37.583Z,3.95
2022-11-05T00:32:05.713Z,4.43
2022-11-05T00:34:33.319Z,3.40
2022-11-05T00:38:01.321Z,3.42
2022-11-05T00:40:34.887Z,5.57
2022-11-05T00:43:20.804Z,4.32
2022-11-05T00:45:48.338Z,5.00
2022-11-05T00:48:34.636Z,2.67
2022-11-05T00:51:02.185Z,2.65
2022-11-05T00:53:29.564Z,1.60
2022-11-05T00:55:56.897Z,1.42
2022-11-05T00:58:24.884Z,0.98
2022-11-05T01:00:54.590Z,1.40
2022-11-05T01:03:24.538Z,0.45
2022-11-05T01:05:55.528Z,1.10
2022-11-05T01:08:25.962Z,1.40
2022-11-05T01:10:56.208Z,0.93
2022-11-05T01:13:27.252Z,1.30
2022-11-05T01:15:55.815Z,1.35
2022-11-05T01:18:24.432Z,1.20
2022-11-05T01:20:51.803Z,3.08
2022-11-05T01:23:19.573Z,3.42
2022-11-05T01:25:47.119Z,3.17
2022-11-05T01:28:14.451Z,1.30
2022-11-05T01:30:41.811Z,1.08
2022-11-05T01:33:09.697Z,2.45
2022-11-05T01:35:39.136Z,0.60
2022-11-05T01:38:06.430Z,2.50
2022-11-05T01:40:33.819Z,1.20
2022-11-05T01:43:01.143Z,1.00
2022-11-05T01:45:28.992Z,0.73
2022-11-05T01:47:59.392Z,0.43
2022-11-05T01:51:01.560Z,0.60
2022-11-05T01:53:31.701Z,0.70
2022-11-05T01:56:22.647Z,0.40
2022-11-05T01:58:53.462Z,1.58
2022-11-05T02:01:21.008Z,0.90
2022-11-05T02:03:50.145Z,0.10
2022-11-05T02:06:17.879Z,2.03
2022-11-05T02:08:58.505Z,0.10
2022-11-05T02:11:26.050Z,1.80
2022-11-05T02:13:53.441Z,0.10
2022-11-05T02:16:20.754Z,0.85
2022-11-05T02:19:29.066Z,0.32
2022-11-05T02:22:14.450Z,0.13
2022-11-05T02:24:41.763Z,0.30
2022-11-05T02:27:43.015Z,0.30
2022-11-05T02:30:26.138Z,1.00
2022-11-05T02:33:00.017Z,0.20
2022-11-05T02:35:44.869Z,0.85
2022-11-05T02:38:32.437Z,0.28
2022-11-05T02:41:13.314Z,0.10
2022-11-05T02:44:03.820Z,0.98
2022-11-05T02:46:38.402Z,0.45
2022-11-05T02:49:36.564Z,0.50
2022-11-05T02:52:14.058Z,0.17
2022-11-05T02:54:47.749Z,1.02
2022-11-05T02:57:15.154Z,0.40
2022-11-05T02:59:42.412Z,0.40
2022-11-05T03:02:09.893Z,1.23
2022-11-05T03:04:37.423Z,0.65
2022-11-05T03:07:35.389Z,1.05
2022-11-05T03:10:23.537Z,0.50
2022-11-05T03:13:19.359Z,0.60
2022-11-05T03:16:06.131Z,2.25
2022-11-05T03:18:43.227Z,1.30
2022-11-05T03:21:22.078Z,0.63
2022-11-05T03:23:49.279Z,1.30
2022-11-05T03:26:26.543Z,0.65
2022-11-05T03:29:01.735Z,0.85
2022-11-05T03:31:31.367Z,0.40
2022-11-05T03:34:01.020Z,1.80
2022-11-05T03:36:35.382Z,0.10
2022-11-05T03:39:06.475Z,0.25
2022-11-05T03:41:35.483Z,0.10
2022-11-05T03:44:06.874Z,0.52
2022-11-05T03:46:41.139Z,0.10
2022-11-05T03:49:12.933Z,0.47
2022-11-05T03:51:49.587Z,5.25
2022-11-05T03:54:17.038Z,0.28
2022-11-05T03:57:02.636Z,0.50
2022-11-05T03:59:32.162Z,0.52
2022-11-05T04:01:59.627Z,0.00
2022-11-05T04:04:27.131Z,0.30
2022-11-05T04:07:13.230Z,0.15
2022-11-05T04:09:58.796Z,0.47
2022-11-05T04:12:44.769Z,0.28
2022-11-05T04:15:12.050Z,0.08
2022-11-05T04:17:39.309Z,0.10
2022-11-05T04:20:25.303Z,0.28
2022-11-05T04:23:25.328Z,0.10
2022-11-05T04:25:52.698Z,0.10
2022-11-05T04:28:19.922Z,2.42
2022-11-05T04:30:47.341Z,0.00
2022-11-05T04:33:16.782Z,0.35
2022-11-05T04:35:48.780Z,0.25
2022-11-05T04:38:20.228Z,1.20
2022-11-05T04:40:48.415Z,1.08
2022-11-05T04:43:19.046Z,2.08
2022-11-05T04:45:46.707Z,0.40
2022-11-05T04:48:14.083Z,0.65
2022-11-05T04:50:41.441Z,1.40
2022-11-05T04:53:09.006Z,0.63
2022-11-05T04:55:36.548Z,0.32
2022-11-05T04:58:03.883Z,0.28
2022-11-05T05:00:31.234Z,0.45
2022-11-05T05:02:58.538Z,0.30
2022-11-05T05:05:25.943Z,0.22
2022-11-05T05:07:53.410Z,3.15
2022-11-05T05:10:20.767Z,0.20
2022-11-05T05:12:48.519Z,0.93
2022-11-05T05:15:15.906Z,0.50
2022-11-05T05:17:43.333Z,1.25
2022-11-05T05:20:28.986Z,1.25
2022-11-05T05:22:56.315Z,0.85
2022-11-05T05:25:23.701Z,0.65
2022-11-05T05:27:51.271Z,1.73
2022-11-05T05:30:18.661Z,1.67
2022-11-05T05:32:46.018Z,14.80
2022-11-05T05:35:13.354Z,1.25
2022-11-05T05:37:40.805Z,2.92
2022-11-05T05:40:08.968Z,2.05
2022-11-05T05:42:41.773Z,3.08
2022-11-05T05:45:11.136Z,4.90
2022-11-05T05:47:38.866Z,2.28
2022-11-05T05:50:06.596Z,2.92
2022-11-05T05:52:34.150Z,1.52
2022-11-05T05:55:01.448Z,2.92
2022-11-05T05:57:28.772Z,1.20
2022-11-05T05:59:56.181Z,4.78
2022-11-05T06:02:23.813Z,2.22
2022-11-05T06:04:51.208Z,1.48
2022-11-05T06:07:18.541Z,3.55
2022-11-05T06:09:45.971Z,0.63
2022-11-05T06:12:13.347Z,1.17
2022-11-05T06:14:40.755Z,2.40
2022-11-05T06:17:08.277Z,1.25
2022-11-05T06:19:35.674Z,1.13
2022-11-05T06:22:02.932Z,1.02
2022-11-05T06:24:30.582Z,1.58
2022-11-05T06:26:58.265Z,1.00
2022-11-05T06:29:25.649Z,0.85
2022-11-05T06:31:53.058Z,2.78
2022-11-05T06:34:20.540Z,1.17
2022-11-05T06:36:47.924Z,4.70
2022-11-05T06:39:15.231Z,1.80
2022-11-05T06:42:11.809Z,3.22
2022-11-05T06:44:31.240Z,2.30
2022-11-05T06:46:58.725Z,1.67
2022-11-05T06:49:26.051Z,1.33
2022-11-05T06:51:53.512Z,1.92
2022-11-05T06:54:21.381Z,1.48
2022-11-05T06:56:48.837Z,1.08
2022-11-05T06:59:16.285Z,1.25
2022-11-05T07:01:43.773Z,2.08
2022-11-05T07:04:12.689Z,2.20
2022-11-05T07:06:40.040Z,1.08
2022-11-05T07:09:07.403Z,1.30
2022-11-05T07:11:34.715Z,1.05
2022-11-05T07:14:02.130Z,5.40
2022-11-05T07:16:29.792Z,6.90
2022-11-05T07:18:57.430Z,2.28
2022-11-05T07:21:24.939Z,1.50
2022-11-05T07:23:52.334Z,2.33
2022-11-05T07:26:19.657Z,2.33
2022-11-05T07:28:46.929Z,1.45
2022-11-05T07:31:14.334Z,2.25
2022-11-05T07:33:41.648Z,1.95
2022-11-05T07:36:09.486Z,3.45
2022-11-05T07:38:36.780Z,7.95
2022-11-05T07:41:04.164Z,5.93
2022-11-05T07:43:31.508Z,5.70
2022-11-05T07:45:59.249Z,3.45
2022-11-05T07:48:26.538Z,3.10
2022-11-05T07:50:53.820Z,3.20
2022-11-05T07:53:21.253Z,1.90
2022-11-05T07:55:48.655Z,5.60
2022-11-05T07:58:16.005Z,6.22
2022-11-05T08:00:43.573Z,1.50
2022-11-05T08:03:14.538Z,1.42
2022-11-05T08:05:47.152Z,2.35
2022-11-05T08:08:16.759Z,1.02
2022-11-05T08:10:44.072Z,4.32
2022-11-05T08:13:12.279Z,3.08
2022-11-05T08:15:40.814Z,6.78
2022-11-05T08:18:12.071Z,4.05
2022-11-05T08:20:41.417Z,5.85
2022-11-05T08:23:09.553Z,3.55
2022-11-05T08:25:37.182Z,4.10
2022-11-05T08:28:07.773Z,3.22
2022-11-05T08:30:35.811Z,2.88
2022-11-05T08:33:06.203Z,4.80
2022-11-05T08:35:35.226Z,5.90
2022-11-05T08:38:05.131Z,2.70
2022-11-05T08:40:34.677Z,2.60
2022-11-05T08:43:03.831Z,2.17
2022-11-05T08:45:31.524Z,2.95
2022-11-05T08:48:13.129Z,2.03
2022-11-05T08:50:40.979Z,3.53
2022-11-05T08:53:09.904Z,1.17
2022-11-05T08:55:38.552Z,0.68
2022-11-05T08:58:16.062Z,2.83
2022-11-05T09:00:46.843Z,3.20
2022-11-05T09:03:15.110Z,4.47
2022-11-05T09:05:43.273Z,3.83
2022-11-05T09:08:19.066Z,0.93
2022-11-05T09:10:47.491Z,3.53
2022-11-05T09:13:19.445Z,1.20
2022-11-05T09:15:49.119Z,0.77
2022-11-05T09:18:18.034Z,1.20
2022-11-05T09:20:45.768Z,2.22
2022-11-05T09:23:16.382Z,1.17
2022-11-05T09:25:44.624Z,1.40
2022-11-05T09:28:20.550Z,1.00
2022-11-05T09:30:50.028Z,2.20
2022-11-05T09:33:19.510Z,0.93
2022-11-05T09:35:46.958Z,4.05
2022-11-05T09:38:14.382Z,2.05
2022-11-05T09:41:09.221Z,5.22
2022-11-05T09:43:48.616Z,2.97
2022-11-05T09:46:26.295Z,2.28
2022-11-05T09:49:12.338Z,4.82
2022-11-05T09:51:40.729Z,3.00
2022-11-05T09:54:10.720Z,1.73
2022-11-05T09:56:41.272Z,4.53
2022-11-05T09:59:22.662Z,2.42
2022-11-05T10:01:52.357Z,2.65
2022-11-05T10:04:23.709Z,0.70
2022-11-05T10:07:02.897Z,2.40
2022-11-05T10:09:36.215Z,1.45
2022-11-05T10:14:48.621Z,4.35
2022-11-05T10:17:26.234Z,17.48
2022-11-05T10:20:03.294Z,7.13
2022-11-05T10:22:30.625Z,7.80
2022-11-05T10:24:57.939Z,41.28
2022-11-05T10:27:37.583Z,3.70
2022-11-05T10:30:05.495Z,3.03
2022-11-05T10:32:39.382Z,3.58
2022-11-05T10:35:11.503Z,21.33
2022-11-05T10:37:40.961Z,64.10
2022-11-05T10:40:33.839Z,8.40
2022-11-05T10:43:06.893Z,8.38
2022-11-05T10:48:28.355Z,4.78
2022-11-05T10:50:56.238Z,2.13
2022-11-05T10:53:34.927Z,1.00
2022-11-05T10:56:04.550Z,3.33
2022-11-05T10:58:35.275Z,2.25
2022-11-05T11:01:07.437Z,5.53
2022-11-05T11:03:52.731Z,1.20
2022-11-05T11:06:37.963Z,2.85
2022-11-05T11:09:26.381Z,1.65
2022-11-05T11:12:05.504Z,3.97
2022-11-05T11:14:35.012Z,0.95
2022-11-05T11:17:27.968Z,2.05
2022-11-05T11:20:22.321Z,1.10
2022-11-05T11:22:59.022Z,2.60
2022-11-05T11:25:29.955Z,4.97
2022-11-05T11:28:03.720Z,2.25
2022-11-05T11:30:31.756Z,2.72
2022-11-05T11:33:07.782Z,0.80
2022-11-05T11:35:37.941Z,2.20
2022-11-05T11:38:06.945Z,2.08
2022-11-05T11:40:38.686Z,1.40
2022-11-05T11:43:17.503Z,0.45
2022-11-05T11:45:54.215Z,1.75
2022-11-05T11:48:29.606Z,1.20
2022-11-05T11:50:58.698Z,0.93
2022-11-05T11:53:34.486Z,0.77
2022-11-05T11:56:14.743Z,0.93
2022-11-05T11:58:46.956Z,1.88
2022-11-05T12:01:32.563Z,0.95
2022-11-05T12:04:30.422Z,1.33
2022-11-05T12:07:54.571Z,2.55
2022-11-05T12:10:34.351Z,1.58
2022-11-05T12:13:14.195Z,0.80
2022-11-05T12:16:04.735Z,1.85
2022-11-05T12:18:45.434Z,3.30
2022-11-05T12:21:41.098Z,3.28
2022-11-05T12:24:34.539Z,2.80
2022-11-05T12:27:07.645Z,1.27
2022-11-05T12:30:04.036Z,1.08
2022-11-05T12:33:05.578Z,3.05
2022-11-05T12:35:44.115Z,1.15
2022-11-05T12:38:53.808Z,2.08
2022-11-05T12:41:33.860Z,0.57
2022-11-05T12:44:47.628Z,4.20
2022-11-05T12:47:36.410Z,1.38
2022-11-05T12:50:12.663Z,1.13
2022-11-05T12:52:57.447Z,0.90
2022-11-05T12:55:27.299Z,1.20
2022-11-05T12:58:01.143Z,0.98
2022-11-05T13:00:30.451Z,0.50
2022-11-05T13:03:00.768Z,0.55
2022-11-05T13:05:36.552Z,0.50
2022-11-05T13:08:07.532Z,0.68
2022-11-05T13:10:51.787Z,0.85
2022-11-05T13:13:31.241Z,0.65
2022-11-05T13:16:21.578Z,1.33
2022-11-05T13:19:18.016Z,1.02
2022-11-05T13:21:53.682Z,0.90
2022-11-05T13:24:25.469Z,1.40
2022-11-05T13:27:24.801Z,1.25
2022-11-05T13:29:56.985Z,2.05
2022-11-05T13:32:43.738Z,1.85
2022-11-05T13:35:37.766Z,0.90
2022-11-05T13:38:27.597Z,0.77
2022-11-05T13:40:57.590Z,0.95
2022-11-05T13:43:27.705Z,1.50
2022-11-05T13:46:05.829Z,0.93
2022-11-05T13:48:43.607Z,1.38
2022-11-05T13:51:34.767Z,1.10
2022-11-05T13:54:17.031Z,0.95
2022-11-05T13:56:53.518Z,0.95
2022-11-05T13:59:48.348Z,2.88
2022-11-05T14:02:21.556Z,3.58
2022-11-05T14:07:17.640Z,1.45
2022-11-05T14:09:45.812Z,1.38
2022-11-05T14:12:46.606Z,3.25
2022-11-05T14:15:24.571Z,2.47
2022-11-05T14:18:04.318Z,3.22
2022-11-05T14:20:31.846Z,3.58
2022-11-05T14:23:17.675Z,2.92
2022-11-05T14:25:45.153Z,2.85
2022-11-05T14:28:38.943Z,4.40
2022-11-05T14:34:15.148Z,5.05
2022-11-05T14:36:44.846Z,6.53
2022-11-05T14:39:31.020Z,3.85
2022-11-05T14:42:03.620Z,5.75
2022-11-05T14:44:34.189Z,5.97
2022-11-05T14:47:07.788Z,5.82
2022-11-05T14:49:53.133Z,4.10
2022-11-05T14:52:21.053Z,5.85
2022-11-05T14:54:58.290Z,4.88
2022-11-05T14:57:41.792Z,4.55
2022-11-05T15:03:56.231Z,4.43
2022-11-05T15:06:25.367Z,5.43
2022-11-05T15:09:16.996Z,6.13
2022-11-05T15:12:02.397Z,6.55
2022-11-05T15:15:01.993Z,6.53
2022-11-05T15:17:33.220Z,9.38
2022-11-05T15:20:06.744Z,8.23
2022-11-05T15:22:40.353Z,7.90
2022-11-05T15:25:16.261Z,8.30
2022-11-05T15:28:06.680Z,10.05
2022-11-05T15:30:34.169Z,7.43
2022-11-05T15:33:17.455Z,6.55
2022-11-05T15:35:44.862Z,6.65
2022-11-05T15:38:29.387Z,10.93
2022-11-05T15:40:59.066Z,7.18
2022-11-05T15:43:26.423Z,8.15
2022-11-05T15:46:14.493Z,8.35
2022-11-05T15:48:46.248Z,8.02
2022-11-05T15:51:13.662Z,6.80
2022-11-05T15:54:02.187Z,7.72
2022-11-05T15:56:33.315Z,6.60
2022-11-05T15:59:17.072Z,10.48
2022-11-05T16:02:18.622Z,8.25
2022-11-05T16:04:49.152Z,9.82
2022-11-05T16:07:17.286Z,9.25
2022-11-05T16:09:56.839Z,6.00
2022-11-05T16:12:35.603Z,7.75
2022-11-05T16:15:08.877Z,6.22
2022-11-05T16:20:22.866Z,7.15
2022-11-05T16:22:53.386Z,6.93
2022-11-05T16:25:41.485Z,7.22
2022-11-05T16:28:29.040Z,8.07
2022-11-05T16:30:58.668Z,8.13
2022-11-05T16:33:32.636Z,9.57
2022-11-05T16:36:00.049Z,8.10
2022-11-05T16:38:27.973Z,11.50
2022-11-05T16:40:55.242Z,11.30
2022-11-05T16:43:26.321Z,11.35
2022-11-05T16:45:55.636Z,13.40
2022-11-05T16:48:23.219Z,13.23
2022-11-05T16:50:50.639Z,15.05
2022-11-05T16:53:18.127Z,10.07
2022-11-05T16:55:46.535Z,11.15
2022-11-05T16:58:21.880Z,8.38
2022-11-05T17:00:50.955Z,9.13
2022-11-05T17:03:18.647Z,8.30
2022-11-05T17:05:46.451Z,12.50
2022-11-05T17:08:14.198Z,11.60
2022-11-05T17:10:42.010Z,9.02
2022-11-05T17:13:17.947Z,11.30
2022-11-05T17:15:48.259Z,12.80
2022-11-05T17:18:18.750Z,9.85
2022-11-05T17:20:51.790Z,9.30
2022-11-05T17:23:21.650Z,9.68
2022-11-05T17:25:54.684Z,9.35
2022-11-05T17:28:22.649Z,9.30
2022-11-05T17:30:52.946Z,9.63
2022-11-05T17:33:22.889Z,8.82
2022-11-05T17:35:51.497Z,8.02
2022-11-05T17:38:19.771Z,9.20
2022-11-05T17:40:47.759Z,7.70
2022-11-05T17:43:16.129Z,9.05
2022-11-05T17:45:47.281Z,11.35
2022-11-05T17:48:15.526Z,10.90
2022-11-05T17:50:48.067Z,11.38
2022-11-05T17:53:17.164Z,11.20
2022-11-05T17:55:45.728Z,10.18
2022-11-05T17:58:13.510Z,9.43
2022-11-05T18:00:42.491Z,10.57
2022-11-05T18:03:11.619Z,10.35
2022-11-05T18:05:40.316Z,11.10
2022-11-05T18:08:08.743Z,8.65
2022-11-05T18:10:40.647Z,8.23
2022-11-05T18:13:08.226Z,9.13
2022-11-05T18:15:38.016Z,8.02
2022-11-05T18:18:05.450Z,12.85
2022-11-05T18:20:33.095Z,10.32
2022-11-05T18:23:00.445Z,12.60
2022-11-05T18:25:27.784Z,13.88
2022-11-05T18:27:55.153Z,12.35
2022-11-05T18:30:22.481Z,12.45
2022-11-05T18:32:51.084Z,23.83
2022-11-05T18:35:18.472Z,16.95
2022-11-05T18:37:46.145Z,11.27
2022-11-05T18:40:16.815Z,10.93
2022-11-05T18:42:50.989Z,10.13
2022-11-05T18:45:18.496Z,10.23
2022-11-05T18:47:48.488Z,12.15
2022-11-05T18:50:15.887Z,12.88
2022-11-05T18:52:43.982Z,10.75
2022-11-05T18:55:11.343Z,14.38
2022-11-05T18:57:41.651Z,14.55
2022-11-05T19:00:09.769Z,15.13
2022-11-05T19:02:37.293Z,16.08
2022-11-05T19:05:28.022Z,16.25
2022-11-05T19:07:52.449Z,15.77
2022-11-05T19:10:19.790Z,15.50
2022-11-05T19:12:47.212Z,17.90
2022-11-05T19:15:14.533Z,14.55
2022-11-05T19:17:41.890Z,11.27
2022-11-05T19:20:09.661Z,9.88
2022-11-05T19:22:37.174Z,9.75
2022-11-05T19:25:05.573Z,12.52
2022-11-05T19:27:34.589Z,11.52
2022-11-05T19:30:02.463Z,23.85
2022-11-05T19:32:29.807Z,12.35
2022-11-05T19:34:57.087Z,8.52
2022-11-05T19:37:24.388Z,10.50
2022-11-05T19:39:52.062Z,12.65
2022-11-05T19:42:19.321Z,13.13
2022-11-05T19:44:46.624Z,15.23
2022-11-05T19:47:13.972Z,12.35
2022-11-05T19:49:41.352Z,18.05
2022-11-05T19:52:08.682Z,15.27
2022-11-05T19:54:36.109Z,13.13
2022-11-05T19:57:03.573Z,23.63
2022-11-05T19:59:30.949Z,17.75
2022-11-05T20:01:58.508Z,15.48
2022-11-05T20:04:26.001Z,10.13
2022-11-05T20:06:53.430Z,11.65
2022-11-05T20:09:22.437Z,13.95
2022-11-05T20:11:53.983Z,22.60
2022-11-05T20:14:21.334Z,15.10
2022-11-05T20:16:49.616Z,16.15
2022-11-05T20:19:19.200Z,15.55
2022-11-05T20:21:47.021Z,12.00
2022-11-05T20:24:22.387Z,10.45
2022-11-05T20:26:55.457Z,13.88
2022-11-05T20:29:24.041Z,12.75
2022-11-05T20:31:52.569Z,28.88
2022-11-05T20:34:20.106Z,12.82
2022-11-05T20:36:47.427Z,14.38
2022-11-05T20:39:15.087Z,10.85
2022-11-05T20:41:42.516Z,12.00
2022-11-05T20:44:10.155Z,15.35
2022-11-05T20:46:37.528Z,10.57
2022-11-05T20:49:04.887Z,14.18
2022-11-05T20:51:32.175Z,10.52
2022-11-05T20:54:01.128Z,12.10
2022-11-05T20:56:34.717Z,7.90
2022-11-05T20:59:02.865Z,8.07
2022-11-05T21:01:32.463Z,6.68
2022-11-05T21:04:00.068Z,11.50
2022-11-05T21:06:27.797Z,10.55
2022-11-05T21:08:58.933Z,12.10
2022-11-05T21:11:26.663Z,10.27
2022-11-05T21:13:54.773Z,10.27
2022-11-05T21:16:22.331Z,31.08
2022-11-05T21:18:49.715Z,13.10
2022-11-05T21:21:19.314Z,10.55
2022-11-05T21:23:47.188Z,10.75
2022-11-05T21:26:16.833Z,9.85
2022-11-05T21:28:44.234Z,11.85
2022-11-05T21:31:11.695Z,8.10
2022-11-05T21:33:39.223Z,19.42
2022-11-05T21:36:12.623Z,24.25
2022-11-05T21:41:08.768Z,10.98
2022-11-05T21:43:37.811Z,5.93
2022-11-05T21:46:05.518Z,6.30
2022-11-05T21:48:33.981Z,7.50
2022-11-05T21:51:19.884Z,6.35
2022-11-05T21:54:05.735Z,7.70
2022-11-05T21:56:52.426Z,7.68
2022-11-05T21:59:40.977Z,16.92
2022-11-05T22:02:11.323Z,12.65
2022-11-05T22:04:41.572Z,10.05
2022-11-05T22:07:11.532Z,9.15
2022-11-05T22:09:42.451Z,6.50
2022-11-05T22:12:10.547Z,6.97
2022-11-05T22:14:38.003Z,8.25
2022-11-05T22:17:05.767Z,8.60
2022-11-05T22:19:33.754Z,7.72
2022-11-05T22:22:01.319Z,10.68
2022-11-05T22:24:30.532Z,7.88
2022-11-05T22:26:59.802Z,8.13
2022-11-05T22:29:28.064Z,5.53
2022-11-05T22:31:55.755Z,5.63
2022-11-05T22:34:24.121Z,7.18
2022-11-05T22:36:52.223Z,7.30
2022-11-05T22:39:20.088Z,8.30
2022-11-05T22:41:47.574Z,5.38
2022-11-05T22:44:16.672Z,6.75
2022-11-05T22:46:44.211Z,4.50
2022-11-05T22:49:12.096Z,4.82
2022-11-05T22:51:40.029Z,5.15
2022-11-05T22:54:08.448Z,3.75
2022-11-05T22:56:40.396Z,4.82
2022-11-05T22:59:10.134Z,4.05
2022-11-05T23:01:37.736Z,5.85
2022-11-05T23:04:05.196Z,4.80
2022-11-05T23:06:51.864Z,3.78
2022-11-05T23:09:42.327Z,4.75
2022-11-05T23:12:24.074Z,4.03
2022-11-05T23:14:52.401Z,3.65
2022-11-05T23:17:38.535Z,4.20
2022-11-05T23:20:26.903Z,3.35
2022-11-05T23:23:12.735Z,3.08
2022-11-05T23:25:40.175Z,2.47
2022-11-05T23:28:10.244Z,11.63
2022-11-05T23:31:02.030Z,3.65
2022-11-05T23:33:33.610Z,3.80
2022-11-05T23:36:19.707Z,6.65
2022-11-05T23:38:47.104Z,13.60
2022-11-05T23:41:32.834Z,5.65
2022-11-05T23:44:18.952Z,6.53
2022-11-05T23:47:04.926Z,19.30
2022-11-05T23:49:32.430Z,11.30
2022-11-05T23:51:59.766Z,10.57
2022-11-05T23:54:27.326Z,5.90
2022-11-05T23:56:54.837Z,7.20
2022-11-05T23:59:22.178Z,6.97
